sensor_id;sensor_type;location;lat;lon;timestamp;temperature;humidity
13806;DHT22;6974;53.606;9.872;2023-06-22T00:01:16;20.70;99.90
13806;DHT22;6974;53.606;9.872;2023-06-22T00:03:43;20.60;99.90
13806;DHT22;6974;53.606;9.872;2023-06-22T00:06:10;20.60;99.90
13806;DHT22;6974;53.606;9.872;2023-06-22T00:08:38;20.60;99.90
13806;DHT22;6974;53.606;9.872;2023-06-22T00:11:05;20.60;99.90
13806;DHT22;6974;53.606;9.872;2023-06-22T00:13:32;20.60;99.90
13806;DHT22;6974;53.606;9.872;2023-06-22T00:15:59;20.60;99.90
13806;DHT22;6974;53.606;9.872;2023-06-22T00:18:25;20.50;99.90
13806;DHT22;6974;53.606;9.872;2023-06-22T00:20:54;20.50;99.90
13806;DHT22;6974;53.606;9.872;2023-06-22T00:23:23;20.50;99.90
13806;DHT22;6974;53.606;9.872;2023-06-22T00:25:51;20.50;99.90
13806;DHT22;6974;53.606;9.872;2023-06-22T00:28:18;20.50;99.90
13806;DHT22;6974;53.606;9.872;2023-06-22T00:30:45;20.50;99.90
13806;DHT22;6974;53.606;9.872;2023-06-22T00:33:13;20.40;99.90
13806;DHT22;6974;53.606;9.872;2023-06-22T00:35:40;20.40;99.90
13806;DHT22;6974;53.606;9.872;2023-06-22T00:38:07;20.30;99.90
13806;DHT22;6974;53.606;9.872;2023-06-22T00:40:34;20.40;99.90
13806;DHT22;6974;53.606;9.872;2023-06-22T00:43:03;20.40;99.90
13806;DHT22;6974;53.606;9.872;2023-06-22T00:45:30;20.30;99.90
13806;DHT22;6974;53.606;9.872;2023-06-22T00:47:58;20.30;99.90
13806;DHT22;6974;53.606;9.872;2023-06-22T00:50:26;20.40;99.90
13806;DHT22;6974;53.606;9.872;2023-06-22T00:52:55;20.30;99.90
13806;DHT22;6974;53.606;9.872;2023-06-22T00:55:24;20.30;99.90
13806;DHT22;6974;53.606;9.872;2023-06-22T00:57:51;20.30;99.90
13806;DHT22;6974;53.606;9.872;2023-06-22T01:00:23;20.20;99.90
13806;DHT22;6974;53.606;9.872;2023-06-22T01:02:51;20.10;99.90
13806;DHT22;6974;53.606;9.872;2023-06-22T01:05:20;20.20;99.90
13806;DHT22;6974;53.606;9.872;2023-06-22T01:07:56;20.20;99.90
13806;DHT22;6974;53.606;9.872;2023-06-22T01:10:29;20.20;99.90
13806;DHT22;6974;53.606;9.872;2023-06-22T01:13:01;20.20;99.90
13806;DHT22;6974;53.606;9.872;2023-06-22T01:15:33;20.20;99.90
13806;DHT22;6974;53.606;9.872;2023-06-22T01:18:04;20.10;99.90
13806;DHT22;6974;53.606;9.872;2023-06-22T01:20:32;20.10;99.90
13806;DHT22;6974;53.606;9.872;2023-06-22T01:23:07;20.10;99.90
13806;DHT22;6974;53.606;9.872;2023-06-22T01:25:45;20.10;99.90
13806;DHT22;6974;53.606;9.872;2023-06-22T01:28:23;20.00;99.90
13806;DHT22;6974;53.606;9.872;2023-06-22T01:30:52;20.00;99.90
13806;DHT22;6974;53.606;9.872;2023-06-22T01:33:33;20.00;99.90
13806;DHT22;6974;53.606;9.872;2023-06-22T01:36:01;19.90;99.90
13806;DHT22;6974;53.606;9.872;2023-06-22T01:38:29;19.90;99.90
13806;DHT22;6974;53.606;9.872;2023-06-22T01:40:57;20.00;99.90
13806;DHT22;6974;53.606;9.872;2023-06-22T01:43:26;20.00;99.90
13806;DHT22;6974;53.606;9.872;2023-06-22T01:48:24;20.00;99.90
13806;DHT22;6974;53.606;9.872;2023-06-22T01:50:52;20.00;99.90
13806;DHT22;6974;53.606;9.872;2023-06-22T01:53:20;20.00;99.90
13806;DHT22;6974;53.606;9.872;2023-06-22T01:55:48;19.90;99.90
13806;DHT22;6974;53.606;9.872;2023-06-22T01:58:15;19.90;99.90
13806;DHT22;6974;53.606;9.872;2023-06-22T02:00:48;19.80;99.90
13806;DHT22;6974;53.606;9.872;2023-06-22T02:03:20;19.80;99.90
13806;DHT22;6974;53.606;9.872;2023-06-22T02:05:52;19.90;99.90
13806;DHT22;6974;53.606;9.872;2023-06-22T02:08:25;19.90;99.90
13806;DHT22;6974;53.606;9.872;2023-06-22T02:10:55;19.90;99.90
13806;DHT22;6974;53.606;9.872;2023-06-22T02:13:25;19.80;99.90
13806;DHT22;6974;53.606;9.872;2023-06-22T02:15:54;19.80;99.90
13806;DHT22;6974;53.606;9.872;2023-06-22T02:18:22;19.80;99.90
13806;DHT22;6974;53.606;9.872;2023-06-22T02:20:50;19.80;99.90
13806;DHT22;6974;53.606;9.872;2023-06-22T02:23:18;19.80;99.90
13806;DHT22;6974;53.606;9.872;2023-06-22T02:25:45;19.80;99.90
13806;DHT22;6974;53.606;9.872;2023-06-22T02:28:12;19.80;99.90
13806;DHT22;6974;53.606;9.872;2023-06-22T02:30:40;19.80;99.90
13806;DHT22;6974;53.606;9.872;2023-06-22T02:33:07;19.80;99.90
13806;DHT22;6974;53.606;9.872;2023-06-22T02:35:34;19.80;99.90
13806;DHT22;6974;53.606;9.872;2023-06-22T02:38:04;19.80;99.90
13806;DHT22;6974;53.606;9.872;2023-06-22T02:40:31;19.70;99.90
13806;DHT22;6974;53.606;9.872;2023-06-22T02:42:58;19.60;99.90
13806;DHT22;6974;53.606;9.872;2023-06-22T02:45:28;19.60;99.90
13806;DHT22;6974;53.606;9.872;2023-06-22T02:47:55;19.70;99.90
13806;DHT22;6974;53.606;9.872;2023-06-22T02:50:23;19.60;99.90
13806;DHT22;6974;53.606;9.872;2023-06-22T02:52:50;19.60;99.90
13806;DHT22;6974;53.606;9.872;2023-06-22T02:55:18;19.60;99.90
13806;DHT22;6974;53.606;9.872;2023-06-22T02:57:45;19.60;99.90
13806;DHT22;6974;53.606;9.872;2023-06-22T03:00:14;19.60;99.90
13806;DHT22;6974;53.606;9.872;2023-06-22T03:02:43;19.60;99.90
13806;DHT22;6974;53.606;9.872;2023-06-22T03:05:11;19.60;99.90
13806;DHT22;6974;53.606;9.872;2023-06-22T03:07:39;19.60;99.90
13806;DHT22;6974;53.606;9.872;2023-06-22T03:10:08;19.60;99.90
13806;DHT22;6974;53.606;9.872;2023-06-22T03:12:37;19.50;99.90
13806;DHT22;6974;53.606;9.872;2023-06-22T03:15:05;19.50;99.90
13806;DHT22;6974;53.606;9.872;2023-06-22T03:17:33;19.50;99.90
13806;DHT22;6974;53.606;9.872;2023-06-22T03:20:01;19.60;99.90
13806;DHT22;6974;53.606;9.872;2023-06-22T03:22:34;19.60;99.90
13806;DHT22;6974;53.606;9.872;2023-06-22T03:25:01;19.50;99.90
13806;DHT22;6974;53.606;9.872;2023-06-22T03:27:29;19.50;99.90
13806;DHT22;6974;53.606;9.872;2023-06-22T03:29:58;19.40;99.90
13806;DHT22;6974;53.606;9.872;2023-06-22T03:32:25;19.30;99.90
13806;DHT22;6974;53.606;9.872;2023-06-22T03:34:53;19.40;99.90
13806;DHT22;6974;53.606;9.872;2023-06-22T03:37:24;19.30;99.90
13806;DHT22;6974;53.606;9.872;2023-06-22T03:39:51;19.30;99.90
13806;DHT22;6974;53.606;9.872;2023-06-22T03:42:18;19.30;99.90
13806;DHT22;6974;53.606;9.872;2023-06-22T03:44:46;19.30;99.90
13806;DHT22;6974;53.606;9.872;2023-06-22T03:47:14;19.20;99.90
13806;DHT22;6974;53.606;9.872;2023-06-22T03:49:41;19.20;99.90
13806;DHT22;6974;53.606;9.872;2023-06-22T03:52:08;19.30;99.90
13806;DHT22;6974;53.606;9.872;2023-06-22T03:54:36;19.30;99.90
13806;DHT22;6974;53.606;9.872;2023-06-22T03:57:04;19.40;99.90
13806;DHT22;6974;53.606;9.872;2023-06-22T03:59:32;19.40;99.90
13806;DHT22;6974;53.606;9.872;2023-06-22T04:01:59;19.40;99.90
13806;DHT22;6974;53.606;9.872;2023-06-22T04:04:28;19.50;99.90
13806;DHT22;6974;53.606;9.872;2023-06-22T04:06:58;19.50;99.90
13806;DHT22;6974;53.606;9.872;2023-06-22T04:09:25;19.60;99.90
13806;DHT22;6974;53.606;9.872;2023-06-22T04:11:52;19.60;99.90
13806;DHT22;6974;53.606;9.872;2023-06-22T04:14:19;19.60;99.90
13806;DHT22;6974;53.606;9.872;2023-06-22T04:16:47;19.60;99.90
13806;DHT22;6974;53.606;9.872;2023-06-22T04:19:14;19.60;99.90
13806;DHT22;6974;53.606;9.872;2023-06-22T04:21:44;19.60;99.90
13806;DHT22;6974;53.606;9.872;2023-06-22T04:24:14;19.60;99.90
13806;DHT22;6974;53.606;9.872;2023-06-22T04:26:41;19.60;99.90
13806;DHT22;6974;53.606;9.872;2023-06-22T04:29:10;19.70;99.90
13806;DHT22;6974;53.606;9.872;2023-06-22T04:31:38;19.70;99.90
13806;DHT22;6974;53.606;9.872;2023-06-22T04:34:07;19.70;99.90
13806;DHT22;6974;53.606;9.872;2023-06-22T04:36:35;19.80;99.90
13806;DHT22;6974;53.606;9.872;2023-06-22T04:39:08;19.80;99.90
13806;DHT22;6974;53.606;9.872;2023-06-22T04:41:36;19.80;99.90
13806;DHT22;6974;53.606;9.872;2023-06-22T04:44:12;19.80;99.90
13806;DHT22;6974;53.606;9.872;2023-06-22T04:46:39;19.80;99.90
13806;DHT22;6974;53.606;9.872;2023-06-22T04:49:08;19.80;99.90
13806;DHT22;6974;53.606;9.872;2023-06-22T04:51:40;19.80;99.90
13806;DHT22;6974;53.606;9.872;2023-06-22T04:54:09;19.80;99.90
13806;DHT22;6974;53.606;9.872;2023-06-22T04:56:37;19.90;99.90
13806;DHT22;6974;53.606;9.872;2023-06-22T04:59:06;19.90;99.90
13806;DHT22;6974;53.606;9.872;2023-06-22T05:01:34;20.00;99.90
13806;DHT22;6974;53.606;9.872;2023-06-22T05:04:01;20.00;99.90
13806;DHT22;6974;53.606;9.872;2023-06-22T05:06:30;20.00;99.90
13806;DHT22;6974;53.606;9.872;2023-06-22T05:08:58;20.00;99.90
13806;DHT22;6974;53.606;9.872;2023-06-22T05:11:27;20.00;99.90
13806;DHT22;6974;53.606;9.872;2023-06-22T05:13:54;20.10;99.90
13806;DHT22;6974;53.606;9.872;2023-06-22T05:16:22;20.10;99.90
13806;DHT22;6974;53.606;9.872;2023-06-22T05:18:51;20.20;99.90
13806;DHT22;6974;53.606;9.872;2023-06-22T05:21:22;20.20;99.90
13806;DHT22;6974;53.606;9.872;2023-06-22T05:23:50;20.30;99.90
13806;DHT22;6974;53.606;9.872;2023-06-22T05:26:17;20.40;99.90
13806;DHT22;6974;53.606;9.872;2023-06-22T05:28:46;20.40;99.90
13806;DHT22;6974;53.606;9.872;2023-06-22T05:31:14;20.50;99.90
13806;DHT22;6974;53.606;9.872;2023-06-22T05:33:42;20.50;99.90
13806;DHT22;6974;53.606;9.872;2023-06-22T05:36:10;20.60;99.90
13806;DHT22;6974;53.606;9.872;2023-06-22T05:38:38;20.60;99.90
13806;DHT22;6974;53.606;9.872;2023-06-22T05:41:06;20.60;99.90
13806;DHT22;6974;53.606;9.872;2023-06-22T05:43:33;20.60;99.90
13806;DHT22;6974;53.606;9.872;2023-06-22T05:46:03;20.70;99.90
13806;DHT22;6974;53.606;9.872;2023-06-22T05:48:30;20.70;99.90
13806;DHT22;6974;53.606;9.872;2023-06-22T05:50:58;20.80;99.90
13806;DHT22;6974;53.606;9.872;2023-06-22T05:53:25;20.80;99.90
13806;DHT22;6974;53.606;9.872;2023-06-22T05:55:52;20.90;99.90
13806;DHT22;6974;53.606;9.872;2023-06-22T05:58:20;20.90;99.90
13806;DHT22;6974;53.606;9.872;2023-06-22T06:00:47;20.90;99.90
13806;DHT22;6974;53.606;9.872;2023-06-22T06:03:15;21.10;99.90
13806;DHT22;6974;53.606;9.872;2023-06-22T06:05:44;21.10;99.90
13806;DHT22;6974;53.606;9.872;2023-06-22T06:08:11;21.10;99.90
13806;DHT22;6974;53.606;9.872;2023-06-22T06:10:39;21.10;99.90
13806;DHT22;6974;53.606;9.872;2023-06-22T06:13:06;21.20;99.90
13806;DHT22;6974;53.606;9.872;2023-06-22T06:15:34;21.20;99.90
13806;DHT22;6974;53.606;9.872;2023-06-22T06:18:02;21.30;99.90
13806;DHT22;6974;53.606;9.872;2023-06-22T06:20:32;21.40;99.90
13806;DHT22;6974;53.606;9.872;2023-06-22T06:22:59;21.40;99.90
13806;DHT22;6974;53.606;9.872;2023-06-22T06:25:26;21.40;99.90
13806;DHT22;6974;53.606;9.872;2023-06-22T06:27:53;21.40;99.90
13806;DHT22;6974;53.606;9.872;2023-06-22T06:30:21;21.50;99.90
13806;DHT22;6974;53.606;9.872;2023-06-22T06:32:50;21.50;99.90
13806;DHT22;6974;53.606;9.872;2023-06-22T06:35:17;21.60;99.90
13806;DHT22;6974;53.606;9.872;2023-06-22T06:37:48;21.60;99.90
13806;DHT22;6974;53.606;9.872;2023-06-22T06:40:16;21.50;99.90
13806;DHT22;6974;53.606;9.872;2023-06-22T06:42:45;21.50;99.90
13806;DHT22;6974;53.606;9.872;2023-06-22T06:45:15;21.40;99.90
13806;DHT22;6974;53.606;9.872;2023-06-22T06:47:42;21.40;99.90
13806;DHT22;6974;53.606;9.872;2023-06-22T06:50:10;21.40;99.90
13806;DHT22;6974;53.606;9.872;2023-06-22T06:52:38;21.40;99.90
13806;DHT22;6974;53.606;9.872;2023-06-22T06:55:10;21.40;99.90
13806;DHT22;6974;53.606;9.872;2023-06-22T06:57:39;21.50;99.90
13806;DHT22;6974;53.606;9.872;2023-06-22T07:00:08;21.50;99.90
13806;DHT22;6974;53.606;9.872;2023-06-22T07:02:38;21.70;99.90
13806;DHT22;6974;53.606;9.872;2023-06-22T07:05:06;21.70;99.90
13806;DHT22;6974;53.606;9.872;2023-06-22T07:07:33;21.70;99.90
13806;DHT22;6974;53.606;9.872;2023-06-22T07:10:01;21.70;99.90
13806;DHT22;6974;53.606;9.872;2023-06-22T07:12:30;21.80;99.90
13806;DHT22;6974;53.606;9.872;2023-06-22T07:15:04;21.90;99.90
13806;DHT22;6974;53.606;9.872;2023-06-22T07:17:33;21.90;99.90
13806;DHT22;6974;53.606;9.872;2023-06-22T07:20:00;22.00;99.90
13806;DHT22;6974;53.606;9.872;2023-06-22T07:22:27;22.10;99.90
13806;DHT22;6974;53.606;9.872;2023-06-22T07:24:54;22.10;99.90
13806;DHT22;6974;53.606;9.872;2023-06-22T07:27:21;22.20;99.90
13806;DHT22;6974;53.606;9.872;2023-06-22T07:29:49;22.30;99.90
13806;DHT22;6974;53.606;9.872;2023-06-22T07:32:16;22.30;99.90
13806;DHT22;6974;53.606;9.872;2023-06-22T07:34:43;22.40;99.90
13806;DHT22;6974;53.606;9.872;2023-06-22T07:37:10;22.40;99.90
13806;DHT22;6974;53.606;9.872;2023-06-22T07:39:37;22.50;99.90
13806;DHT22;6974;53.606;9.872;2023-06-22T07:42:05;22.60;99.90
13806;DHT22;6974;53.606;9.872;2023-06-22T07:44:31;22.70;99.90
13806;DHT22;6974;53.606;9.872;2023-06-22T07:46:59;22.80;99.90
13806;DHT22;6974;53.606;9.872;2023-06-22T07:49:27;22.90;99.90
13806;DHT22;6974;53.606;9.872;2023-06-22T07:51:54;23.00;99.90
13806;DHT22;6974;53.606;9.872;2023-06-22T07:54:21;23.10;99.90
13806;DHT22;6974;53.606;9.872;2023-06-22T07:56:48;23.10;99.90
13806;DHT22;6974;53.606;9.872;2023-06-22T07:59:15;23.10;99.90
13806;DHT22;6974;53.606;9.872;2023-06-22T08:01:42;23.10;99.90
13806;DHT22;6974;53.606;9.872;2023-06-22T08:04:10;23.20;99.90
13806;DHT22;6974;53.606;9.872;2023-06-22T08:06:37;23.30;99.90
13806;DHT22;6974;53.606;9.872;2023-06-22T08:09:04;23.40;99.90
13806;DHT22;6974;53.606;9.872;2023-06-22T08:11:31;23.50;99.90
13806;DHT22;6974;53.606;9.872;2023-06-22T08:13:58;23.50;99.90
13806;DHT22;6974;53.606;9.872;2023-06-22T08:16:25;23.50;99.90
13806;DHT22;6974;53.606;9.872;2023-06-22T08:18:51;23.50;99.90
13806;DHT22;6974;53.606;9.872;2023-06-22T08:21:19;23.50;99.90
13806;DHT22;6974;53.606;9.872;2023-06-22T08:23:47;23.60;99.90
13806;DHT22;6974;53.606;9.872;2023-06-22T08:26:14;23.70;99.90
13806;DHT22;6974;53.606;9.872;2023-06-22T08:28:41;23.80;99.90
13806;DHT22;6974;53.606;9.872;2023-06-22T08:31:08;23.90;99.90
13806;DHT22;6974;53.606;9.872;2023-06-22T08:33:35;23.90;99.90
13806;DHT22;6974;53.606;9.872;2023-06-22T08:36:02;23.90;99.90
13806;DHT22;6974;53.606;9.872;2023-06-22T08:38:33;23.90;99.90
13806;DHT22;6974;53.606;9.872;2023-06-22T08:41:00;24.00;99.90
13806;DHT22;6974;53.606;9.872;2023-06-22T08:43:27;24.00;99.90
13806;DHT22;6974;53.606;9.872;2023-06-22T08:45:53;24.00;99.90
13806;DHT22;6974;53.606;9.872;2023-06-22T08:48:20;24.20;99.90
13806;DHT22;6974;53.606;9.872;2023-06-22T08:50:47;24.20;99.90
13806;DHT22;6974;53.606;9.872;2023-06-22T08:53:14;24.40;99.90
13806;DHT22;6974;53.606;9.872;2023-06-22T08:55:42;24.50;99.90
13806;DHT22;6974;53.606;9.872;2023-06-22T08:58:09;24.60;99.90
13806;DHT22;6974;53.606;9.872;2023-06-22T09:00:36;24.70;99.90
13806;DHT22;6974;53.606;9.872;2023-06-22T09:03:03;24.90;99.90
13806;DHT22;6974;53.606;9.872;2023-06-22T09:05:30;25.00;99.90
13806;DHT22;6974;53.606;9.872;2023-06-22T09:07:57;25.10;99.90
13806;DHT22;6974;53.606;9.872;2023-06-22T09:10:24;25.20;99.90
13806;DHT22;6974;53.606;9.872;2023-06-22T09:12:52;25.20;99.90
13806;DHT22;6974;53.606;9.872;2023-06-22T09:15:19;25.40;99.90
13806;DHT22;6974;53.606;9.872;2023-06-22T09:17:47;25.50;99.90
13806;DHT22;6974;53.606;9.872;2023-06-22T09:20:14;25.50;99.90
13806;DHT22;6974;53.606;9.872;2023-06-22T09:22:41;25.60;99.90
13806;DHT22;6974;53.606;9.872;2023-06-22T09:25:08;25.70;99.90
13806;DHT22;6974;53.606;9.872;2023-06-22T09:27:35;25.80;99.90
13806;DHT22;6974;53.606;9.872;2023-06-22T09:30:05;25.90;99.90
13806;DHT22;6974;53.606;9.872;2023-06-22T09:32:32;26.00;99.90
13806;DHT22;6974;53.606;9.872;2023-06-22T09:35:02;26.10;99.90
13806;DHT22;6974;53.606;9.872;2023-06-22T09:37:30;26.10;99.90
13806;DHT22;6974;53.606;9.872;2023-06-22T09:39:57;26.30;99.90
13806;DHT22;6974;53.606;9.872;2023-06-22T09:42:23;26.40;99.90
13806;DHT22;6974;53.606;9.872;2023-06-22T09:44:50;26.40;99.90
13806;DHT22;6974;53.606;9.872;2023-06-22T09:47:18;26.50;99.90
13806;DHT22;6974;53.606;9.872;2023-06-22T09:49:45;26.60;99.90
13806;DHT22;6974;53.606;9.872;2023-06-22T09:52:12;26.60;99.90
13806;DHT22;6974;53.606;9.872;2023-06-22T09:54:39;26.70;99.90
13806;DHT22;6974;53.606;9.872;2023-06-22T09:57:06;26.60;99.90
13806;DHT22;6974;53.606;9.872;2023-06-22T09:59:33;26.50;99.90
13806;DHT22;6974;53.606;9.872;2023-06-22T10:02:00;26.60;99.90
13806;DHT22;6974;53.606;9.872;2023-06-22T10:04:28;26.70;99.90
13806;DHT22;6974;53.606;9.872;2023-06-22T10:06:55;26.80;99.90
13806;DHT22;6974;53.606;9.872;2023-06-22T10:09:22;26.90;99.90
13806;DHT22;6974;53.606;9.872;2023-06-22T10:11:49;27.00;99.90
13806;DHT22;6974;53.606;9.872;2023-06-22T10:14:16;27.20;99.90
13806;DHT22;6974;53.606;9.872;2023-06-22T10:16:42;27.30;99.90
13806;DHT22;6974;53.606;9.872;2023-06-22T10:19:09;27.20;99.90
13806;DHT22;6974;53.606;9.872;2023-06-22T10:21:37;27.30;99.90
13806;DHT22;6974;53.606;9.872;2023-06-22T10:24:05;27.50;99.90
13806;DHT22;6974;53.606;9.872;2023-06-22T10:26:32;27.60;99.90
13806;DHT22;6974;53.606;9.872;2023-06-22T10:28:59;27.60;99.90
13806;DHT22;6974;53.606;9.872;2023-06-22T10:31:26;27.40;99.90
13806;DHT22;6974;53.606;9.872;2023-06-22T10:33:53;27.30;99.90
13806;DHT22;6974;53.606;9.872;2023-06-22T10:36:20;27.20;99.90
13806;DHT22;6974;53.606;9.872;2023-06-22T10:38:49;27.00;99.90
13806;DHT22;6974;53.606;9.872;2023-06-22T10:41:16;26.80;99.90
13806;DHT22;6974;53.606;9.872;2023-06-22T10:43:43;26.70;99.90
13806;DHT22;6974;53.606;9.872;2023-06-22T10:46:10;26.60;99.90
13806;DHT22;6974;53.606;9.872;2023-06-22T10:48:37;26.60;99.90
13806;DHT22;6974;53.606;9.872;2023-06-22T10:51:04;26.70;99.90
13806;DHT22;6974;53.606;9.872;2023-06-22T10:53:31;26.90;99.90
13806;DHT22;6974;53.606;9.872;2023-06-22T10:55:59;27.00;99.90
13806;DHT22;6974;53.606;9.872;2023-06-22T10:58:26;26.80;99.90
13806;DHT22;6974;53.606;9.872;2023-06-22T11:00:53;26.70;99.90
13806;DHT22;6974;53.606;9.872;2023-06-22T11:03:20;26.50;99.90
13806;DHT22;6974;53.606;9.872;2023-06-22T11:05:47;26.50;99.90
13806;DHT22;6974;53.606;9.872;2023-06-22T11:08:14;26.50;99.90
13806;DHT22;6974;53.606;9.872;2023-06-22T11:10:41;26.40;99.90
13806;DHT22;6974;53.606;9.872;2023-06-22T11:13:09;26.30;99.90
13806;DHT22;6974;53.606;9.872;2023-06-22T11:15:36;26.30;99.90
13806;DHT22;6974;53.606;9.872;2023-06-22T11:18:03;26.40;99.90
13806;DHT22;6974;53.606;9.872;2023-06-22T11:20:33;26.80;99.90
13806;DHT22;6974;53.606;9.872;2023-06-22T11:23:03;27.00;99.90
13806;DHT22;6974;53.606;9.872;2023-06-22T11:25:30;27.20;99.90
13806;DHT22;6974;53.606;9.872;2023-06-22T11:27:57;27.20;99.90
13806;DHT22;6974;53.606;9.872;2023-06-22T11:30:25;27.10;99.90
13806;DHT22;6974;53.606;9.872;2023-06-22T11:32:52;27.10;99.90
13806;DHT22;6974;53.606;9.872;2023-06-22T11:35:19;27.00;99.90
13806;DHT22;6974;53.606;9.872;2023-06-22T11:37:46;26.90;99.90
13806;DHT22;6974;53.606;9.872;2023-06-22T11:40:13;27.00;99.90
13806;DHT22;6974;53.606;9.872;2023-06-22T11:42:40;27.10;99.90
13806;DHT22;6974;53.606;9.872;2023-06-22T11:45:07;27.20;99.90
13806;DHT22;6974;53.606;9.872;2023-06-22T11:47:35;27.20;99.90
13806;DHT22;6974;53.606;9.872;2023-06-22T11:50:03;27.20;99.90
13806;DHT22;6974;53.606;9.872;2023-06-22T11:52:30;27.30;99.90
13806;DHT22;6974;53.606;9.872;2023-06-22T11:54:57;27.60;99.90
13806;DHT22;6974;53.606;9.872;2023-06-22T11:57:25;27.80;99.90
13806;DHT22;6974;53.606;9.872;2023-06-22T11:59:51;27.90;99.90
13806;DHT22;6974;53.606;9.872;2023-06-22T12:02:18;27.90;99.90
13806;DHT22;6974;53.606;9.872;2023-06-22T12:04:46;27.90;99.90
13806;DHT22;6974;53.606;9.872;2023-06-22T12:07:13;27.80;99.90
13806;DHT22;6974;53.606;9.872;2023-06-22T12:09:41;27.60;99.90
13806;DHT22;6974;53.606;9.872;2023-06-22T12:12:08;27.50;99.90
13806;DHT22;6974;53.606;9.872;2023-06-22T12:14:35;27.40;99.90
13806;DHT22;6974;53.606;9.872;2023-06-22T12:17:02;27.50;99.90
13806;DHT22;6974;53.606;9.872;2023-06-22T12:19:29;27.50;99.90
13806;DHT22;6974;53.606;9.872;2023-06-22T12:21:57;27.60;99.90
13806;DHT22;6974;53.606;9.872;2023-06-22T12:24:24;27.60;99.90
13806;DHT22;6974;53.606;9.872;2023-06-22T12:26:51;27.70;99.90
13806;DHT22;6974;53.606;9.872;2023-06-22T12:29:18;27.70;99.90
13806;DHT22;6974;53.606;9.872;2023-06-22T12:31:45;27.80;99.90
13806;DHT22;6974;53.606;9.872;2023-06-22T12:34:11;27.80;99.90
13806;DHT22;6974;53.606;9.872;2023-06-22T12:36:38;28.00;99.90
13806;DHT22;6974;53.606;9.872;2023-06-22T12:39:07;28.20;99.90
13806;DHT22;6974;53.606;9.872;2023-06-22T12:41:33;28.50;99.90
13806;DHT22;6974;53.606;9.872;2023-06-22T12:44:00;28.50;99.90
13806;DHT22;6974;53.606;9.872;2023-06-22T12:46:27;28.60;99.90
13806;DHT22;6974;53.606;9.872;2023-06-22T12:48:55;28.50;99.90
13806;DHT22;6974;53.606;9.872;2023-06-22T12:51:22;28.60;99.90
13806;DHT22;6974;53.606;9.872;2023-06-22T12:53:49;28.60;99.90
13806;DHT22;6974;53.606;9.872;2023-06-22T12:56:18;28.70;99.90
13806;DHT22;6974;53.606;9.872;2023-06-22T12:58:44;28.80;99.90
13806;DHT22;6974;53.606;9.872;2023-06-22T13:01:11;28.60;99.90
13806;DHT22;6974;53.606;9.872;2023-06-22T13:03:38;28.60;99.90
13806;DHT22;6974;53.606;9.872;2023-06-22T13:06:05;28.50;99.90
13806;DHT22;6974;53.606;9.872;2023-06-22T13:08:32;28.40;99.90
13806;DHT22;6974;53.606;9.872;2023-06-22T13:10:59;28.50;99.90
13806;DHT22;6974;53.606;9.872;2023-06-22T13:13:27;28.40;99.90
13806;DHT22;6974;53.606;9.872;2023-06-22T13:15:54;28.40;99.90
13806;DHT22;6974;53.606;9.872;2023-06-22T13:18:20;28.50;99.90
13806;DHT22;6974;53.606;9.872;2023-06-22T13:20:47;28.70;99.90
13806;DHT22;6974;53.606;9.872;2023-06-22T13:23:14;28.80;99.90
13806;DHT22;6974;53.606;9.872;2023-06-22T13:25:41;28.80;99.90
13806;DHT22;6974;53.606;9.872;2023-06-22T13:28:08;28.70;99.90
13806;DHT22;6974;53.606;9.872;2023-06-22T13:30:37;28.60;99.90
13806;DHT22;6974;53.606;9.872;2023-06-22T13:33:04;28.50;99.90
13806;DHT22;6974;53.606;9.872;2023-06-22T13:35:30;28.30;99.90
13806;DHT22;6974;53.606;9.872;2023-06-22T13:37:57;28.10;99.90
13806;DHT22;6974;53.606;9.872;2023-06-22T13:40:24;28.00;99.90
13806;DHT22;6974;53.606;9.872;2023-06-22T13:42:51;27.90;99.90
13806;DHT22;6974;53.606;9.872;2023-06-22T13:45:18;27.80;99.90
13806;DHT22;6974;53.606;9.872;2023-06-22T13:47:47;27.80;99.90
13806;DHT22;6974;53.606;9.872;2023-06-22T13:50:14;27.70;99.90
13806;DHT22;6974;53.606;9.872;2023-06-22T13:52:40;27.70;99.90
13806;DHT22;6974;53.606;9.872;2023-06-22T13:55:08;27.70;99.90
13806;DHT22;6974;53.606;9.872;2023-06-22T13:57:35;27.60;99.90
13806;DHT22;6974;53.606;9.872;2023-06-22T14:02:29;27.70;99.90
13806;DHT22;6974;53.606;9.872;2023-06-22T14:04:59;27.70;99.90
13806;DHT22;6974;53.606;9.872;2023-06-22T14:07:26;27.80;99.90
13806;DHT22;6974;53.606;9.872;2023-06-22T14:09:54;27.80;99.90
13806;DHT22;6974;53.606;9.872;2023-06-22T14:12:21;27.70;99.90
13806;DHT22;6974;53.606;9.872;2023-06-22T14:14:48;27.80;99.90
13806;DHT22;6974;53.606;9.872;2023-06-22T14:17:15;27.80;99.90
13806;DHT22;6974;53.606;9.872;2023-06-22T14:19:42;27.80;99.90
13806;DHT22;6974;53.606;9.872;2023-06-22T14:22:12;27.90;99.90
13806;DHT22;6974;53.606;9.872;2023-06-22T14:24:39;27.90;99.90
13806;DHT22;6974;53.606;9.872;2023-06-22T14:27:06;27.80;99.90
13806;DHT22;6974;53.606;9.872;2023-06-22T14:29:34;27.80;99.90
13806;DHT22;6974;53.606;9.872;2023-06-22T14:32:02;27.80;99.90
13806;DHT22;6974;53.606;9.872;2023-06-22T14:34:30;27.80;99.90
13806;DHT22;6974;53.606;9.872;2023-06-22T14:36:56;27.70;99.90
13806;DHT22;6974;53.606;9.872;2023-06-22T14:39:25;27.60;99.90
13806;DHT22;6974;53.606;9.872;2023-06-22T14:41:52;27.50;99.90
13806;DHT22;6974;53.606;9.872;2023-06-22T14:44:19;27.40;99.90
13806;DHT22;6974;53.606;9.872;2023-06-22T14:46:46;27.40;99.90
13806;DHT22;6974;53.606;9.872;2023-06-22T14:49:13;27.30;99.90
13806;DHT22;6974;53.606;9.872;2023-06-22T14:51:40;27.20;99.90
13806;DHT22;6974;53.606;9.872;2023-06-22T14:54:07;27.20;99.90
13806;DHT22;6974;53.606;9.872;2023-06-22T14:56:36;27.10;99.90
13806;DHT22;6974;53.606;9.872;2023-06-22T14:59:03;27.00;99.90
13806;DHT22;6974;53.606;9.872;2023-06-22T15:01:30;26.90;99.90
13806;DHT22;6974;53.606;9.872;2023-06-22T15:03:57;26.90;99.90
13806;DHT22;6974;53.606;9.872;2023-06-22T15:06:25;26.90;99.90
13806;DHT22;6974;53.606;9.872;2023-06-22T15:08:52;26.90;99.90
13806;DHT22;6974;53.606;9.872;2023-06-22T15:11:20;26.90;99.90
13806;DHT22;6974;53.606;9.872;2023-06-22T15:13:48;26.80;99.90
13806;DHT22;6974;53.606;9.872;2023-06-22T15:16:16;26.80;99.90
13806;DHT22;6974;53.606;9.872;2023-06-22T15:18:44;26.80;99.90
13806;DHT22;6974;53.606;9.872;2023-06-22T15:21:12;26.60;99.90
13806;DHT22;6974;53.606;9.872;2023-06-22T15:23:39;26.60;99.90
13806;DHT22;6974;53.606;9.872;2023-06-22T15:26:06;26.60;99.90
13806;DHT22;6974;53.606;9.872;2023-06-22T15:28:34;26.60;99.90
13806;DHT22;6974;53.606;9.872;2023-06-22T15:31:04;26.60;99.90
13806;DHT22;6974;53.606;9.872;2023-06-22T15:33:32;26.50;99.90
13806;DHT22;6974;53.606;9.872;2023-06-22T15:35:59;26.50;99.90
13806;DHT22;6974;53.606;9.872;2023-06-22T15:38:29;26.50;99.90
13806;DHT22;6974;53.606;9.872;2023-06-22T15:40:57;26.50;99.90
13806;DHT22;6974;53.606;9.872;2023-06-22T15:43:24;26.50;99.90
13806;DHT22;6974;53.606;9.872;2023-06-22T15:45:52;26.40;99.90
13806;DHT22;6974;53.606;9.872;2023-06-22T15:48:21;26.40;99.90
13806;DHT22;6974;53.606;9.872;2023-06-22T15:50:49;26.40;99.90
13806;DHT22;6974;53.606;9.872;2023-06-22T15:53:16;26.40;99.90